Depesze METAR lotnisk w Polsce

METAR – format kodowanego raportu o pogodzie używany w meteorologii lotniczej i prognozie pogody. METAR jest akronimem od ang. Meteorological Aerodrome Report. Typowy METAR zawiera informację o temperaturze, ciśnieniu, temperaturze punktu rosy, sile i kierunku wiatru, opadzie, pokrywie chmur, wysokości podstawy chmur, widzialności, lecz może zawierać też inne informacje (np. stan dróg startowych).

Warszawa-Okęcie (EPWA)

METAR = EPWA 192230Z 29004KT 5000 BR BKN030 M01/M01 Q1038 TEMPO 3000 BR

STACJA......... EPWA - Warszawa-Okęcie (WAW)
POMIAR......... Sun Jan 19, 23:30 CET
WIATR.......... zachodni północno-zachodni (WNW) z prędkością 7 km/h
WIDZIALNOŚĆ.... 5000 metrów
WARUNKI........ zamglenie 
CHMURY......... zachmurzenie średnie (5/8-7/8)
TEMPERATURA.... -1°C
T.PUNKTU ROSY.. -1°C
WILGOTNOŚĆ..... 100%
T.ODCZUWALNA... -4°C
CIŚNIENIE...... 1038 hPa
CIŚN.BEZWZGL... 1024 hPa
PROGNOZA....... spodziewana krótkookresowa zmiana (<1h): widzialność poniżej 3000 metrów, zamglenie

Sprawdź też: Prognoza pogody Warszawa

Warszawa-Modlin (EPMO)

METAR = EPMO 192230Z 32005KT 6000 BKN029 02/02 Q1038 =

STACJA......... EPMO - Warszawa-Modlin (WMI)
POMIAR......... Sun Jan 19, 23:30 CET
WIATR.......... północno zachodni (NW) z prędkością 9 km/h
WIDZIALNOŚĆ.... 6000 metrów
CHMURY......... zachmurzenie średnie (5/8-7/8)
TEMPERATURA.... 2°C
T.PUNKTU ROSY.. 2°C
WILGOTNOŚĆ..... 100%
T.ODCZUWALNA... -1°C
CIŚNIENIE...... 1038 hPa
CIŚN.BEZWZGL... 1025 hPa

Sprawdź też: Prognoza pogody Nowy Dwór Mazowiecki

Kraków-Balice (EPKK)

METAR = EPKK 192230Z 03007KT 9999 OVC031 03/01 Q1037

STACJA......... EPKK - Kraków-Balice (KRK)
POMIAR......... Sun Jan 19, 23:30 CET
WIATR.......... północno północno-wschodni (NNE) z prędkością 13 km/h
WIDZIALNOŚĆ.... powyżej 10 kilometrów
CHMURY......... zachmurzenie całkowite (8/8)
TEMPERATURA.... 3°C
T.PUNKTU ROSY.. 1°C
WILGOTNOŚĆ..... 87%
T.ODCZUWALNA... -1°C
CIŚNIENIE...... 1037 hPa
CIŚN.BEZWZGL... 1007 hPa

Sprawdź też: Prognoza pogody Kraków

Łódź-Lublinek (EPLL)

METAR = EPLL 192230Z 35004KT 310V010 2800 BR BKN003 02/01 Q1039

STACJA......... EPLL - Łódź-Lublinek (LCJ)
POMIAR......... Sun Jan 19, 23:30 CET
WIATR.......... północny (N) z prędkością 7 km/h
WIDZIALNOŚĆ.... 2800 metrów
WARUNKI........ zamglenie 
CHMURY......... zachmurzenie średnie (5/8-7/8)
TEMPERATURA.... 2°C
T.PUNKTU ROSY.. 1°C
WILGOTNOŚĆ..... 93%
T.ODCZUWALNA... 0°C
CIŚNIENIE...... 1039 hPa
CIŚN.BEZWZGL... 1015 hPa

Sprawdź też: Prognoza pogody Łódź

Wrocław-Strachowice (EPWR)

METAR = EPWR 192230Z 34004KT 9999 BKN024 03/01 Q1040

STACJA......... EPWR - Wrocław-Strachowice (WRO)
POMIAR......... Sun Jan 19, 23:30 CET
WIATR.......... północno północno-zachodni (NNW) z prędkością 7 km/h
WIDZIALNOŚĆ.... powyżej 10 kilometrów
CHMURY......... zachmurzenie średnie (5/8-7/8)
TEMPERATURA.... 3°C
T.PUNKTU ROSY.. 1°C
WILGOTNOŚĆ..... 87%
T.ODCZUWALNA... 1°C
CIŚNIENIE...... 1040 hPa
CIŚN.BEZWZGL... 1024 hPa

Sprawdź też: Prognoza pogody Wrocław

Katowice-Pyrzowice (EPKT)

METAR = EPKT 192230Z 01006KT 330V040 5000 BR FEW005 OVC006 02/01 Q1037

STACJA......... EPKT - Katowice-Pyrzowice (KTW)
POMIAR......... Sun Jan 19, 23:30 CET
WIATR.......... północny (N) z prędkością 11 km/h
WIDZIALNOŚĆ.... 5000 metrów
WARUNKI........ zamglenie 
CHMURY......... zachmurzenie całkowite (8/8)
TEMPERATURA.... 2°C
T.PUNKTU ROSY.. 1°C
WILGOTNOŚĆ..... 93%
T.ODCZUWALNA... -1°C
CIŚNIENIE...... 1037 hPa
CIŚN.BEZWZGL... 999 hPa

Sprawdź też: Prognoza pogody Katowice

Gdańsk (EPGD)

METAR = EPGD 192230Z 28008KT 9999 BKN012 03/01 Q1037

STACJA......... EPGD - Gdańsk im. Lecha Wałęsy (GDN)
POMIAR......... Sun Jan 19, 23:30 CET
WIATR.......... zachodni (W) z prędkością 15 km/h
WIDZIALNOŚĆ.... powyżej 10 kilometrów
CHMURY......... zachmurzenie średnie (5/8-7/8)
TEMPERATURA.... 3°C
T.PUNKTU ROSY.. 1°C
WILGOTNOŚĆ..... 87%
T.ODCZUWALNA... -1°C
CIŚNIENIE...... 1037 hPa
CIŚN.BEZWZGL... 1018 hPa

Sprawdź też: Prognoza pogody Gdańsk

Poznań-Ławica (EPPO)

METAR = EPPO 192230Z 30002KT 9000 OVC023 03/01 Q1040

STACJA......... EPPO - Poznań-Ławica (POZ)
POMIAR......... Sun Jan 19, 23:30 CET
WIATR.......... zachodni północno-zachodni (WNW) z prędkością 4 km/h
WIDZIALNOŚĆ.... 9000 metrów
CHMURY......... zachmurzenie całkowite (8/8)
TEMPERATURA.... 3°C
T.PUNKTU ROSY.. 1°C
WILGOTNOŚĆ..... 87%
CIŚNIENIE...... 1040 hPa
CIŚN.BEZWZGL... 1028 hPa

Sprawdź też: Prognoza pogody Poznań

Rzeszów-Jasionka (EPRZ)

METAR = EPRZ 192230Z 29002KT 0300 R27/1100N FG OVC002 00/00 Q1037

STACJA......... EPRZ - Rzeszów-Jasionka (RZE)
POMIAR......... Sun Jan 19, 23:30 CET
WIATR.......... zachodni północno-zachodni (WNW) z prędkością 4 km/h
WIDZIALNOŚĆ.... 300 metrów

Sprawdź też: Prognoza pogody Rzeszów

Szczecin-Goleniów (EPSC)

METAR = EPSC 192230Z 25003KT 9999 OVC016 04/01 Q1040

STACJA......... EPSC - Szczecin-Goleniów (SZZ)
POMIAR......... Sun Jan 19, 23:30 CET
WIATR.......... zachodni południowo-zachodni (WSW) z prędkością 6 km/h
WIDZIALNOŚĆ.... powyżej 10 kilometrów
CHMURY......... zachmurzenie całkowite (8/8)
TEMPERATURA.... 4°C
T.PUNKTU ROSY.. 1°C
WILGOTNOŚĆ..... 81%
T.ODCZUWALNA... 3°C
CIŚNIENIE...... 1040 hPa
CIŚN.BEZWZGL... 1034 hPa

Sprawdź też: Prognoza pogody Szczecin

Lublin-Świdnik (EPLB)

METAR = EPLB 192230Z 33001KT 0550 0350W R25/0700 FG VV002 01/01 Q1037 =

STACJA......... EPLB - Lublin-Świdnik (LUZ)
POMIAR......... Sun Jan 19, 23:30 CET
WIATR.......... północno północno-zachodni (NNW) z prędkością 2 km/h
WIDZIALNOŚĆ.... 550 metrów
WIDZ.KIERUNEK.. w kierunku zachodnim (W) wynosi 350 metrów
WARUNKI........ mgła 
CHMURY......... widzialność pionowa do 61 metrów
TEMPERATURA.... 1°C
T.PUNKTU ROSY.. 1°C
WILGOTNOŚĆ..... 100%
CIŚNIENIE...... 1037 hPa
CIŚN.BEZWZGL... 1011 hPa

Sprawdź też: Prognoza pogody Lublin

Bydgoszcz-Szwederowo (EPBY)

METAR = EPBY 192230Z 27005KT 9999 OVC021 03/00 Q1039=

STACJA......... EPBY - Bydgoszcz-Szwederowo (BZG)
POMIAR......... Sun Jan 19, 23:30 CET
WIATR.......... zachodni (W) z prędkością 9 km/h
WIDZIALNOŚĆ.... powyżej 10 kilometrów
CHMURY......... zachmurzenie całkowite (8/8)
TEMPERATURA.... 3°C
T.PUNKTU ROSY.. 0°C
WILGOTNOŚĆ..... 81%
T.ODCZUWALNA... 0°C
CIŚNIENIE...... 1039 hPa
CIŚN.BEZWZGL... 1030 hPa

Sprawdź też: Prognoza pogody Bydgoszcz

Zielona Góra-Babimost (EPZG)

METAR = EPZG 192230Z NIL=

STACJA......... EPZG - Zielona Góra-Babimost (IEG)
POMIAR......... Sun Jan 19, 23:30 CET
DEPESZA........ brak aktualnej prognozy w treści depeszy

Sprawdź też: Prognoza pogody Zielona Góra

Szymany Olsztyn-Mazury (EPSY)

METAR = EPSY 192230Z VRB03KT 9999 BKN020 03/01 Q1038=

STACJA......... EPSY - Olsztyn-Mazury (SZY)
POMIAR......... Sun Jan 19, 23:30 CET
WIATR.......... zmienny z prędkością 6 km/h
WIDZIALNOŚĆ.... powyżej 10 kilometrów
CHMURY......... zachmurzenie średnie (5/8-7/8)
TEMPERATURA.... 3°C
T.PUNKTU ROSY.. 1°C
WILGOTNOŚĆ..... 87%
T.ODCZUWALNA... 1°C
CIŚNIENIE...... 1038 hPa
CIŚN.BEZWZGL... 1020 hPa

Sprawdź też: Prognoza pogody Olsztyn